Time;durP1;ratioP1;P1;durP2;ratioP2;P2;SDS_P1;SDS_P2;PMS_P1;PMS_P2;Temp;Humidity;BMP_temperature;BMP_pressure;BME280_temperature;BME280_humidity;BME280_pressure;Samples;Min_cycle;Max_cycle;Signal;HPM_P1;HPM_P2
2023/01/13 04:02:13;;;;;;;30.13;5.25;;;8.40;99.90;;;;;;6035104;23;20453;-81
2023/01/13 04:04:54;;;;;;;34.80;5.33;;;8.40;99.90;;;;;;6021605;23;20022;-81
2023/01/13 04:07:30;;;;;;;39.85;5.38;;;8.40;99.90;;;;;;6070903;23;20011;-80
2023/01/13 04:09:56;;;;;;;;;;;8.40;99.90;;;;;;6022732;23;20605;-80
2023/01/13 04:15:26;;;;;;;40.45;7.32;;;8.30;99.90;;;;;;6041360;23;20034;-78
2023/01/13 04:17:53;;;;;;;33.15;4.88;;;8.30;99.90;;;;;;6016601;23;20463;-78
2023/01/13 04:20:19;;;;;;;37.15;5.78;;;8.20;99.90;;;;;;6016954;23;20053;-84
2023/01/13 04:22:45;;;;;;;38.92;5.95;;;8.30;99.90;;;;;;6016895;23;20075;-83
2023/01/13 04:25:11;;;;;;;35.42;5.47;;;8.30;99.90;;;;;;6016067;23;20020;-81
2023/01/13 04:27:37;;;;;;;33.70;5.53;;;8.30;99.90;;;;;;6016317;23;20159;-80
2023/01/13 04:30:04;;;;;;;37.50;4.97;;;8.30;99.90;;;;;;6016331;23;20433;-79
2023/01/13 04:32:30;;;;;;;27.58;4.25;;;8.30;99.90;;;;;;6016176;23;20015;-80
2023/01/13 04:34:55;;;;;;;39.47;4.85;;;8.30;99.90;;;;;;5992794;23;20029;-81
2023/01/13 04:37:21;;;;;;;40.72;7.95;;;8.30;99.90;;;;;;6041614;23;20007;-80
2023/01/13 04:39:46;;;;;;;29.63;4.68;;;8.30;99.90;;;;;;6016390;23;20050;-77
2023/01/13 04:42:12;;;;;;;39.40;5.78;;;8.30;99.90;;;;;;6041061;23;20011;-82
2023/01/13 04:44:38;;;;;;;25.33;3.80;;;8.30;99.90;;;;;;6041765;23;20015;-79
2023/01/13 04:47:04;;;;;;;41.42;5.07;;;8.30;99.90;;;;;;6016021;23;20019;-81
2023/01/13 04:49:30;;;;;;;27.27;4.72;;;8.30;99.90;;;;;;6041346;23;20039;-79
2023/01/13 04:51:56;;;;;;;38.80;5.10;;;8.30;99.90;;;;;;5992669;23;20016;-83
2023/01/13 04:54:21;;;;;;;37.97;4.60;;;8.30;99.90;;;;;;6041532;23;20103;-79
2023/01/13 04:56:47;;;;;;;31.30;5.72;;;8.30;99.90;;;;;;6040929;23;20333;-79
2023/01/13 04:59:13;;;;;;;28.15;5.85;;;8.30;99.90;;;;;;6017001;23;20015;-82
2023/01/13 05:01:39;;;;;;;24.50;4.72;;;8.30;99.90;;;;;;6042493;23;20108;-77
2023/01/13 05:04:05;;;;;;;30.25;4.38;;;8.30;99.90;;;;;;6016893;23;20453;-83
2023/01/13 05:06:31;;;;;;;30.88;4.40;;;8.30;99.90;;;;;;6042964;23;20011;-80
2023/01/13 05:08:57;;;;;;;36.30;5.53;;;8.30;99.90;;;;;;6017760;23;20095;-80
2023/01/13 05:17:00;;;;;;;39.35;5.28;;;8.20;99.90;;;;;;6040917;23;20032;-83
2023/01/13 05:19:32;;;;;;;41.20;6.07;;;8.20;99.90;;;;;;6017856;23;20027;-82
2023/01/13 05:27:27;;;;;;;23.23;3.70;;;8.20;99.90;;;;;;6041495;23;20019;-80
2023/01/13 05:29:53;;;;;;;33.33;5.28;;;8.20;99.90;;;;;;6043334;23;20034;-79
2023/01/13 05:32:19;;;;;;;28.13;3.70;;;8.20;99.90;;;;;;6017954;23;20015;-82
2023/01/13 05:34:45;;;;;;;34.88;5.85;;;8.20;99.90;;;;;;6017964;23;20031;-79
2023/01/13 05:37:12;;;;;;;32.95;6.32;;;8.20;99.90;;;;;;6017962;23;20516;-80
2023/01/13 05:45:10;;;;;;;25.95;4.05;;;8.20;99.90;;;;;;6041113;23;20026;-77
2023/01/13 05:47:36;;;;;;;25.15;3.88;;;8.30;99.90;;;;;;6018270;23;20087;-79
2023/01/13 05:50:02;;;;;;;17.55;3.22;;;8.30;99.90;;;;;;6043272;23;20007;-82
2023/01/13 05:52:28;;;;;;;28.40;4.68;;;8.30;99.90;;;;;;6043162;23;20077;-79
2023/01/13 05:54:54;;;;;;;27.42;4.90;;;8.30;99.90;;;;;;6017629;23;20023;-82
2023/01/13 05:57:19;;;;;;;34.30;6.53;;;8.30;99.90;;;;;;5995419;23;20026;-80
2023/01/13 05:59:45;;;;;;;29.90;4.00;;;8.30;99.90;;;;;;6017541;23;20023;-80
2023/01/13 06:02:11;;;;;;;19.40;3.40;;;8.30;99.90;;;;;;6042986;23;20083;-82
2023/01/13 06:04:36;;;;;;;23.15;3.70;;;8.30;99.90;;;;;;6017776;23;20026;-78
2023/01/13 06:07:02;;;;;;;20.95;2.85;;;8.30;99.90;;;;;;6017095;23;20011;-80
2023/01/13 06:09:27;;;;;;;16.17;3.00;;;8.30;99.90;;;;;;6017570;23;20442;-78
2023/01/13 06:11:53;;;;;;;23.02;2.97;;;8.30;99.90;;;;;;6017121;23;20015;-80
2023/01/13 06:14:19;;;;;;;22.80;3.72;;;8.30;99.90;;;;;;6017539;23;20027;-81
2023/01/13 06:16:45;;;;;;;23.67;2.90;;;8.40;99.90;;;;;;6017300;23;20015;-78
2023/01/13 06:19:11;;;;;;;21.42;2.72;;;8.30;99.90;;;;;;6016791;23;20473;-80
2023/01/13 06:21:40;;;;;;;11.25;2.75;;;8.40;99.90;;;;;;6042335;23;20015;-80
2023/01/13 06:24:07;;;;;;;29.70;3.97;;;8.40;99.90;;;;;;6042398;23;20019;-79
2023/01/13 06:26:39;;;;;;;23.10;3.40;;;8.40;99.90;;;;;;5993497;23;20011;-80
2023/01/13 06:29:05;;;;;;;18.85;4.00;;;8.40;99.90;;;;;;6042994;23;20016;-78
2023/01/13 06:31:35;;;;;;;17.63;2.33;;;8.40;99.90;;;;;;6016919;23;20011;-79
2023/01/13 06:34:13;;;;;;;15.38;3.20;;;8.40;99.90;;;;;;6041928;23;20015;-78
2023/01/13 06:36:51;;;;;;;23.38;3.13;;;8.40;99.90;;;;;;6016462;23;20019;-79
2023/01/13 06:39:21;;;;;;;17.13;2.40;;;8.50;99.90;;;;;;6016839;23;20023;-80
2023/01/13 06:44:34;;;;;;;13.95;2.20;;;8.40;99.90;;;;;;5997104;23;20034;-83
2023/01/13 06:46:59;;;;;;;22.35;2.88;;;8.50;99.90;;;;;;6016919;23;20034;-81
2023/01/13 06:49:25;;;;;;;21.15;4.07;;;8.40;99.90;;;;;;6042326;23;20446;-80
2023/01/13 06:51:50;;;;;;;23.30;3.25;;;8.40;99.90;;;;;;6017274;23;20050;-82
2023/01/13 06:54:16;;;;;;;26.45;3.88;;;8.40;99.90;;;;;;5994366;23;20126;-80
2023/01/13 06:56:42;;;;;;;28.33;3.40;;;8.30;99.90;;;;;;6016841;23;20047;-80
2023/01/13 06:59:07;;;;;;;15.48;3.10;;;8.30;99.90;;;;;;6016870;23;20030;-80
2023/01/13 07:01:33;;;;;;;22.88;2.90;;;8.20;99.90;;;;;;6041668;23;20011;-78
2023/01/13 07:03:59;;;;;;;23.45;3.65;;;8.20;99.90;;;;;;6016855;23;20012;-78
2023/01/13 07:06:24;;;;;;;26.73;3.55;;;8.10;99.90;;;;;;5993123;23;20015;-81
2023/01/13 07:08:50;;;;;;;25.27;3.10;;;8.10;99.90;;;;;;5993357;23;20042;-81
2023/01/13 07:11:15;;;;;;;19.35;3.30;;;8.10;99.90;;;;;;6017130;23;20086;-79
2023/01/13 07:16:26;;;;;;;27.90;3.90;;;8.00;99.90;;;;;;6040495;23;20033;-80
2023/01/13 07:18:52;;;;;;;10.90;2.22;;;7.90;99.90;;;;;;6016933;23;20027;-83
2023/01/13 07:21:18;;;;;;;31.48;3.90;;;7.90;99.90;;;;;;6016758;23;20322;-81
2023/01/13 07:23:45;;;;;;;18.58;3.47;;;7.70;99.90;;;;;;6016543;23;20485;-80
2023/01/13 07:26:12;;;;;;;26.95;5.00;;;7.70;99.90;;;;;;6016402;23;20022;-83
2023/01/13 07:28:38;;;;;;;27.13;3.72;;;7.70;99.90;;;;;;6016650;23;20025;-80
2023/01/13 07:31:05;;;;;;;14.68;2.75;;;7.70;99.90;;;;;;6016442;23;20046;-80
2023/01/13 07:33:32;;;;;;;22.73;3.08;;;7.60;99.90;;;;;;6016785;23;20030;-82
2023/01/13 07:36:02;;;;;;;21.10;3.40;;;7.60;99.90;;;;;;6042184;23;20090;-83
2023/01/13 07:38:29;;;;;;;27.08;4.25;;;7.60;99.90;;;;;;5993737;23;20350;-78
2023/01/13 07:40:55;;;;;;;19.90;2.35;;;7.60;99.90;;;;;;6042480;23;20043;-81
2023/01/13 07:43:40;;;;;;;30.73;3.83;;;7.60;99.90;;;;;;6017774;23;20023;-81
2023/01/13 07:46:06;;;;;;;19.60;3.30;;;7.60;99.90;;;;;;6017615;23;20322;-86
2023/01/13 07:48:33;;;;;;;20.40;3.92;;;7.60;99.90;;;;;;6017255;23;20015;-81
2023/01/13 07:51:07;;;;;;;23.02;3.45;;;7.70;99.90;;;;;;6016345;23;20501;-79
2023/01/13 07:53:33;;;;;;;22.63;4.30;;;7.70;99.90;;;;;;6042812;23;20379;-85
2023/01/13 07:56:01;;;;;;;22.25;4.43;;;7.70;99.90;;;;;;6043024;23;20307;-83
2023/01/13 07:58:27;;;;;;;23.45;4.30;;;7.80;99.90;;;;;;6017950;23;20099;-82
2023/01/13 08:00:54;;;;;;;17.73;3.10;;;7.70;99.90;;;;;;6017438;23;20015;-81
2023/01/13 08:03:21;;;;;;;19.75;3.15;;;7.80;99.90;;;;;;6017415;23;20015;-82
2023/01/13 08:05:46;;;;;;;32.63;4.47;;;7.70;99.90;;;;;;6018807;23;20022;-82
2023/01/13 08:08:12;;;;;;;23.17;4.43;;;7.80;99.90;;;;;;6042347;23;20440;-82
2023/01/13 08:10:38;;;;;;;26.05;3.03;;;7.80;99.90;;;;;;6016039;23;20015;-80
2023/01/13 08:13:17;;;;;;;21.52;3.60;;;7.80;99.90;;;;;;6016483;23;20071;-80
2023/01/13 08:15:43;;;;;;;28.48;3.75;;;7.90;99.90;;;;;;6041121;23;20015;-83
2023/01/13 08:18:09;;;;;;;19.88;2.90;;;7.90;99.90;;;;;;6041614;23;20018;-85
2023/01/13 08:20:44;;;;;;;19.23;3.97;;;8.00;99.90;;;;;;6041425;23;20406;-79
2023/01/13 08:23:10;;;;;;;26.98;4.00;;;8.00;99.90;;;;;;5957992;24;20019;-81
2023/01/13 08:25:36;;;;;;;28.35;4.35;;;8.00;99.90;;;;;;5959412;24;20024;-82
2023/01/13 08:28:02;;;;;;;29.77;5.05;;;8.00;99.90;;;;;;5959623;24;20016;-83
2023/01/13 08:30:27;;;;;;;20.05;3.13;;;8.00;99.90;;;;;;5982438;23;20012;-81
2023/01/13 08:32:53;;;;;;;29.05;4.72;;;8.00;99.90;;;;;;5959366;24;20092;-85
2023/01/13 08:35:19;;;;;;;28.88;4.35;;;7.90;99.90;;;;;;5961006;24;20069;-84
2023/01/13 08:37:48;;;;;;;28.70;4.80;;;8.00;99.90;;;;;;5960614;24;20031;-86
2023/01/13 08:40:16;;;;;;;18.85;2.45;;;8.00;99.90;;;;;;5960060;23;20075;-82
2023/01/13 08:42:41;;;;;;;35.15;5.85;;;8.00;99.90;;;;;;5983172;23;20016;-79
2023/01/13 08:45:08;;;;;;;32.53;4.00;;;8.10;99.90;;;;;;5959674;24;20031;-81
2023/01/13 08:47:34;;;;;;;28.73;4.03;;;8.10;99.90;;;;;;5960407;24;20413;-83
2023/01/13 08:50:00;;;;;;;24.38;3.35;;;8.10;99.90;;;;;;5983471;23;20028;-82
2023/01/13 08:52:25;;;;;;;22.13;3.40;;;8.20;99.90;;;;;;5982241;23;20039;-81
2023/01/13 08:54:51;;;;;;;27.70;4.03;;;8.30;99.90;;;;;;6005825;23;20019;-85
2023/01/13 08:57:18;;;;;;;27.00;4.10;;;8.30;99.90;;;;;;6043465;23;20012;-79
2023/01/13 08:59:45;;;;;;;26.10;4.18;;;8.30;99.90;;;;;;5994512;23;20019;-85
2023/01/13 09:02:17;;;;;;;22.42;3.83;;;8.40;99.90;;;;;;6017502;23;20020;-85
2023/01/13 09:04:43;;;;;;;24.65;3.13;;;8.40;99.90;;;;;;5993746;23;20295;-81
2023/01/13 09:07:09;;;;;;;22.90;4.45;;;8.40;99.90;;;;;;6016484;23;20015;-78
2023/01/13 09:09:35;;;;;;;32.65;4.35;;;8.30;99.90;;;;;;6015728;23;20026;-81
2023/01/13 09:14:45;;;;;;;28.85;3.70;;;8.20;99.90;;;;;;6041989;23;20391;-80
2023/01/13 09:17:10;;;;;;;22.02;3.55;;;8.10;99.90;;;;;;6041755;23;20019;-79
2023/01/13 09:19:36;;;;;;;29.83;4.00;;;8.10;99.90;;;;;;6040775;23;20026;-84
2023/01/13 09:22:02;;;;;;;22.48;3.08;;;8.00;99.90;;;;;;6017410;23;20462;-83
2023/01/13 09:24:29;;;;;;;28.27;3.97;;;8.00;99.90;;;;;;6042849;23;20441;-83
2023/01/13 09:26:55;;;;;;;29.70;4.03;;;8.10;99.90;;;;;;6016886;23;20462;-83
2023/01/13 09:29:20;;;;;;;26.65;4.70;;;8.10;99.90;;;;;;6042624;23;20050;-79
2023/01/13 09:31:46;;;;;;;21.13;4.10;;;8.10;99.90;;;;;;6016605;23;20023;-81
2023/01/13 09:37:00;;;;;;;20.85;2.90;;;8.10;99.90;;;;;;6040818;23;20054;-81
2023/01/13 09:39:26;;;;;;;29.65;3.75;;;8.20;99.90;;;;;;6017101;23;20019;-80
2023/01/13 09:44:58;;;;;;;18.73;3.85;;;8.30;99.90;;;;;;6040893;23;20026;-79
2023/01/13 09:47:55;;;;;;;23.23;3.65;;;8.20;99.90;;;;;;6043998;23;20023;-84
2023/01/13 09:50:57;;;;;;;35.50;4.32;;;8.30;99.90;;;;;;6040236;23;20016;-79
2023/01/13 09:53:33;;;;;;;22.98;4.18;;;8.30;99.90;;;;;;6017499;23;20012;-82
2023/01/13 09:55:59;;;;;;;21.17;3.80;;;8.30;99.90;;;;;;6017424;23;20007;-80
2023/01/13 09:58:25;;;;;;;24.83;5.85;;;8.30;99.90;;;;;;6017185;23;20015;-80
2023/01/13 10:01:00;;;;;;;28.92;4.60;;;8.30;99.90;;;;;;6016728;23;20015;-82
2023/01/13 10:03:29;;;;;;;22.67;3.97;;;8.30;99.90;;;;;;5993011;23;20026;-77
2023/01/13 10:06:09;;;;;;;29.17;4.32;;;8.20;99.90;;;;;;6041500;23;20059;-79
2023/01/13 10:08:38;;;;;;;24.08;3.75;;;8.10;99.90;;;;;;6042230;23;20011;-80
2023/01/13 10:14:22;;;;;;;28.58;3.22;;;8.10;99.90;;;;;;6039978;23;20023;-82
2023/01/13 10:17:27;;;;;;;27.20;3.67;;;8.10;99.90;;;;;;5978746;23;20095;-81
2023/01/13 10:20:08;;;;;;;28.60;3.47;;;8.10;99.90;;;;;;6016076;23;20026;-80
2023/01/13 10:22:55;;;;;;;24.02;3.25;;;8.10;99.90;;;;;;6015858;23;20076;-82
2023/01/13 10:25:26;;;;;;;17.60;3.83;;;8.10;99.90;;;;;;6015965;23;20016;-81
2023/01/13 10:27:55;;;;;;;25.45;3.03;;;8.20;99.90;;;;;;5993021;23;20092;-80
2023/01/13 10:30:29;;;;;;;33.60;4.60;;;8.20;99.90;;;;;;6041319;23;20023;-78
2023/01/13 10:32:58;;;;;;;18.50;2.80;;;8.20;99.90;;;;;;6016087;23;20015;-78
2023/01/13 10:35:45;;;;;;;27.08;3.92;;;8.20;99.90;;;;;;6041405;23;20349;-79
2023/01/13 10:38:33;;;;;;;14.00;2.05;;;8.20;99.90;;;;;;6016077;23;20521;-81
2023/01/13 10:41:03;;;;;;;18.88;2.47;;;8.20;99.90;;;;;;6015336;23;20019;-79
2023/01/13 10:43:30;;;;;;;21.92;3.65;;;8.20;99.90;;;;;;5992168;23;20043;-78
2023/01/13 10:45:59;;;;;;;31.67;5.10;;;8.20;99.90;;;;;;6041852;23;20007;-80
2023/01/13 10:48:37;;;;;;;21.17;2.95;;;8.20;99.90;;;;;;6016445;23;20019;-81
2023/01/13 10:51:11;;;;;;;22.85;2.65;;;8.20;99.90;;;;;;6017247;23;20511;-81
2023/01/13 10:54:04;;;;;;;17.70;2.55;;;8.20;99.90;;;;;;5992596;23;20098;-78
2023/01/13 10:56:33;;;;;;;17.13;3.00;;;8.30;99.90;;;;;;6017539;23;20050;-79
2023/01/13 10:59:26;;;;;;;16.15;2.42;;;8.30;99.90;;;;;;6018270;23;20015;-80
2023/01/13 11:02:01;;;;;;;16.58;2.65;;;8.30;99.90;;;;;;6004699;23;20146;-77
2023/01/13 11:04:31;;;;;;;27.53;4.40;;;8.40;99.90;;;;;;6009722;23;20033;-82
2023/01/13 11:06:58;;;;;;;15.07;2.80;;;8.40;99.90;;;;;;6043668;23;20238;-84
2023/01/13 11:09:25;;;;;;;15.98;2.60;;;8.50;99.90;;;;;;6017735;23;20016;-85
2023/01/13 11:11:55;;;;;;;16.45;2.55;;;8.50;99.90;;;;;;6016377;23;20043;-80
2023/01/13 11:14:40;;;;;;;22.02;3.55;;;8.50;99.90;;;;;;6041482;23;20402;-80
2023/01/13 11:17:13;;;;;;;18.67;2.55;;;8.50;99.90;;;;;;6016798;23;20031;-80
2023/01/13 11:19:46;;;;;;;23.95;3.70;;;8.50;99.90;;;;;;5993506;23;20457;-79
2023/01/13 11:22:36;;;;;;;15.80;2.55;;;8.50;99.90;;;;;;6041158;23;20060;-82
2023/01/13 11:25:08;;;;;;;17.77;3.45;;;8.50;99.90;;;;;;6041386;23;20025;-81
2023/01/13 11:27:57;;;;;;;21.05;2.47;;;8.50;99.90;;;;;;6016286;23;20015;-85
2023/01/13 11:30:42;;;;;;;16.13;3.13;;;8.40;99.90;;;;;;6041822;23;20062;-85
2023/01/13 11:33:14;;;;;;;20.27;3.83;;;8.40;99.90;;;;;;6016445;23;20033;-82
2023/01/13 11:35:50;;;;;;;18.80;3.22;;;8.40;99.90;;;;;;5993085;23;20023;-81
2023/01/13 11:38:29;;;;;;;18.30;3.30;;;8.40;99.90;;;;;;6016823;23;20074;-80
2023/01/13 11:41:05;;;;;;;14.25;2.17;;;8.40;99.90;;;;;;6041533;23;20441;-82
2023/01/13 11:43:38;;;;;;;19.98;3.38;;;8.50;99.90;;;;;;6041834;23;20022;-82
2023/01/13 11:46:04;;;;;;;13.55;2.70;;;8.50;99.90;;;;;;6016640;23;20052;-82
2023/01/13 11:48:34;;;;;;;19.92;2.97;;;8.60;99.90;;;;;;6041421;23;20027;-79
2023/01/13 11:51:09;;;;;;;16.58;3.05;;;8.60;99.90;;;;;;6016542;23;20022;-83
2023/01/13 11:54:11;;;;;;;17.63;3.60;;;8.70;99.90;;;;;;6018257;23;20018;-81
2023/01/13 11:57:32;;;;;;;18.30;3.15;;;8.70;99.90;;;;;;6016453;23;20026;-81
2023/01/13 12:00:31;;;;;;;16.38;2.85;;;8.80;99.90;;;;;;5895452;23;20021;-79
2023/01/13 12:03:22;;;;;;;24.98;3.22;;;8.80;99.90;;;;;;6042601;23;20018;-85
2023/01/13 12:06:10;;;;;;;13.50;2.90;;;8.80;99.90;;;;;;5992685;23;20030;-82
2023/01/13 12:09:08;;;;;;;15.32;2.85;;;8.90;99.90;;;;;;5963534;23;20023;-82
2023/01/13 12:15:22;;;;;;;14.73;2.13;;;8.90;99.90;;;;;;6041556;23;20042;-80
2023/01/13 12:18:28;;;;;;;16.05;2.65;;;9.00;99.90;;;;;;6018130;23;20043;-80
2023/01/13 12:21:00;;;;;;;14.00;3.50;;;9.00;99.90;;;;;;5963335;23;20438;-81
2023/01/13 12:24:04;;;;;;;14.68;2.65;;;9.00;99.90;;;;;;5994645;23;20034;-81
2023/01/13 12:26:34;;;;;;;16.90;2.25;;;9.00;99.90;;;;;;5938615;23;20015;-79
2023/01/13 12:29:06;;;;;;;14.80;3.20;;;9.00;99.90;;;;;;6017939;23;20016;-77
2023/01/13 12:31:36;;;;;;;13.27;2.95;;;9.00;99.90;;;;;;6017814;23;20011;-80
2023/01/13 12:34:30;;;;;;;9.35;2.00;;;9.00;99.90;;;;;;6018186;23;20394;-82
2023/01/13 12:37:01;;;;;;;17.55;2.72;;;9.00;99.90;;;;;;6043548;23;20045;-77
2023/01/13 12:39:33;;;;;;;9.75;1.85;;;9.00;99.90;;;;;;6043241;23;20019;-83
2023/01/13 12:45:11;;;;;;;10.13;2.00;;;9.00;99.90;;;;;;6041264;23;20327;-79
2023/01/13 12:47:44;;;;;;;15.88;2.13;;;9.10;99.90;;;;;;6017951;23;20083;-81
2023/01/13 12:50:24;;;;;;;11.65;2.20;;;9.00;99.90;;;;;;6042944;23;20016;-81
2023/01/13 12:52:51;;;;;;;9.80;2.13;;;9.10;99.90;;;;;;6016969;23;20437;-78
2023/01/13 12:55:34;;;;;;;15.07;2.60;;;9.10;99.90;;;;;;6017728;23;20081;-78
2023/01/13 12:58:03;;;;;;;12.10;2.38;;;9.10;99.90;;;;;;6017860;23;20015;-80
2023/01/13 13:00:38;;;;;;;13.75;2.20;;;9.00;99.90;;;;;;6016949;23;20023;-80
2023/01/13 13:03:31;;;;;;;11.03;1.83;;;9.10;99.90;;;;;;6016829;23;20055;-79
2023/01/13 13:06:11;;;;;;;16.48;2.15;;;9.10;99.90;;;;;;6002939;23;20239;-78
2023/01/13 13:08:39;;;;;;;13.10;2.70;;;9.00;99.90;;;;;;6017049;23;20121;-79
2023/01/13 13:14:35;;;;;;;13.27;3.00;;;9.10;99.90;;;;;;6040619;23;20453;-80
2023/01/13 13:17:03;;;;;;;9.02;1.98;;;9.10;99.90;;;;;;6017500;23;20023;-81
2023/01/13 13:19:31;;;;;;;11.93;2.15;;;9.10;99.90;;;;;;5993160;23;20062;-79
2023/01/13 13:22:18;;;;;;;9.13;1.52;;;9.10;99.90;;;;;;6017008;23;20012;-78
2023/01/13 13:24:50;;;;;;;10.93;1.75;;;9.20;99.90;;;;;;5994108;23;20038;-80
2023/01/13 13:27:17;;;;;;;18.70;2.47;;;9.20;99.90;;;;;;6042985;23;20012;-77
2023/01/13 13:29:57;;;;;;;10.57;2.50;;;9.20;99.90;;;;;;6042939;23;20427;-79
2023/01/13 13:32:28;;;;;;;10.70;2.20;;;9.10;99.90;;;;;;6017125;23;20071;-77
2023/01/13 13:35:30;;;;;;;12.27;2.00;;;9.10;99.90;;;;;;6017955;23;20022;-78
2023/01/13 13:47:05;;;;;;;15.63;2.83;;;9.00;99.90;;;;;;6040817;23;20255;-77
2023/01/13 13:49:51;;;;;;;11.82;2.17;;;9.00;99.90;;;;;;6018354;23;20019;-82
2023/01/13 13:52:53;;;;;;;15.52;3.08;;;9.00;99.90;;;;;;6017671;23;20327;-80
2023/01/13 13:55:22;;;;;;;16.73;2.30;;;9.00;99.90;;;;;;5994988;23;20011;-78
2023/01/13 13:57:51;;;;;;;12.30;2.17;;;9.00;99.90;;;;;;6016506;23;20017;-80
2023/01/13 14:00:33;;;;;;;11.80;1.52;;;9.00;99.90;;;;;;6017309;23;20327;-80
2023/01/13 14:03:18;;;;;;;11.55;1.90;;;8.90;99.90;;;;;;6017166;23;20110;-80
2023/01/13 14:05:59;;;;;;;11.13;2.03;;;9.00;99.90;;;;;;6042496;23;20099;-79
2023/01/13 14:08:33;;;;;;;13.05;2.17;;;9.00;99.90;;;;;;6042715;23;20295;-79
2023/01/13 14:10:58;;;;;;;12.55;2.30;;;9.00;99.90;;;;;;6042650;23;20007;-78
2023/01/13 14:13:30;;;;;;;13.07;1.95;;;9.00;99.90;;;;;;6016947;23;20058;-82
2023/01/13 14:16:01;;;;;;;7.00;2.00;;;9.00;99.90;;;;;;5993608;23;20022;-82
2023/01/13 14:18:29;;;;;;;10.98;2.13;;;9.00;99.90;;;;;;6018285;23;20015;-78
2023/01/13 14:21:24;;;;;;;15.35;2.17;;;9.00;99.90;;;;;;6016813;23;20019;-80
2023/01/13 14:23:53;;;;;;;12.57;2.17;;;9.00;99.90;;;;;;5993965;23;20015;-80
2023/01/13 14:26:27;;;;;;;10.73;1.92;;;9.00;99.90;;;;;;6016655;23;20108;-79
2023/01/13 14:28:58;;;;;;;13.02;1.80;;;9.00;99.90;;;;;;6016914;23;20054;-80
2023/01/13 14:31:24;;;;;;;12.82;2.55;;;9.00;99.90;;;;;;6016380;23;20050;-78
2023/01/13 14:33:53;;;;;;;13.75;3.10;;;9.10;99.90;;;;;;6016209;23;20094;-79
2023/01/13 14:36:33;;;;;;;7.55;2.70;;;9.00;99.90;;;;;;6016094;23;20015;-78
2023/01/13 14:39:02;;;;;;;10.38;2.03;;;9.10;99.90;;;;;;5993500;23;20042;-78
2023/01/13 14:41:31;;;;;;;11.95;2.58;;;9.10;99.90;;;;;;6016303;23;20074;-80
2023/01/13 14:43:59;;;;;;;13.00;2.00;;;9.00;99.90;;;;;;6041876;23;20022;-80
2023/01/13 14:46:36;;;;;;;14.52;2.53;;;9.00;99.90;;;;;;6017128;23;20018;-81
2023/01/13 14:49:02;;;;;;;9.65;2.50;;;9.00;99.90;;;;;;6017126;23;20434;-81
2023/01/13 14:51:30;;;;;;;13.50;2.58;;;9.00;99.90;;;;;;6042285;23;20015;-82
2023/01/13 14:53:57;;;;;;;12.50;2.90;;;9.00;99.90;;;;;;6041981;23;20072;-78
2023/01/13 14:56:46;;;;;;;14.20;2.50;;;9.00;99.90;;;;;;6042178;23;20037;-80
2023/01/13 14:59:59;;;;;;;21.48;4.70;;;8.90;99.90;;;;;;6017141;23;20071;-79
2023/01/13 15:02:27;;;;;;;14.68;2.30;;;8.80;99.90;;;;;;5900226;24;20079;-78
2023/01/13 15:04:55;;;;;;;10.00;1.92;;;8.70;99.90;;;;;;5876971;24;20028;-80
2023/01/13 15:07:26;;;;;;;12.98;1.80;;;8.70;99.90;;;;;;5967556;23;20019;-77
2023/01/13 15:09:54;;;;;;;10.50;2.13;;;8.70;99.90;;;;;;6016526;23;20019;-78
2023/01/13 15:12:34;;;;;;;15.02;2.70;;;8.60;99.90;;;;;;5993183;23;20015;-79
2023/01/13 15:15:03;;;;;;;14.82;1.60;;;8.60;99.90;;;;;;5992937;23;20227;-79
2023/01/13 15:17:29;;;;;;;13.63;2.35;;;8.60;99.90;;;;;;6042015;23;20015;-80
2023/01/13 15:19:54;;;;;;;10.00;1.67;;;8.50;99.90;;;;;;5993421;23;20018;-80
2023/01/13 15:22:20;;;;;;;18.88;2.25;;;8.40;99.90;;;;;;5993196;23;20074;-83
2023/01/13 15:24:46;;;;;;;12.52;2.10;;;8.40;99.90;;;;;;6017635;23;20031;-80
2023/01/13 15:27:18;;;;;;;12.75;1.73;;;8.40;99.90;;;;;;6016848;23;20015;-81
2023/01/13 15:29:44;;;;;;;9.82;1.95;;;8.40;99.90;;;;;;6041684;23;20083;-78
2023/01/13 15:32:21;;;;;;;8.55;2.60;;;8.40;99.90;;;;;;6040740;23;20450;-79
2023/01/13 15:34:47;;;;;;;12.32;2.65;;;8.40;99.90;;;;;;6015700;23;20023;-77
2023/01/13 15:37:19;;;;;;;15.38;2.80;;;8.30;99.90;;;;;;5991522;23;20019;-78
2023/01/13 15:39:45;;;;;;;15.75;2.85;;;8.20;99.90;;;;;;6016273;23;20115;-80
2023/01/13 15:47:42;;;;;;;12.70;2.00;;;8.10;99.90;;;;;;6041804;23;20020;-84
2023/01/13 15:50:18;;;;;;;20.83;3.53;;;8.10;99.90;;;;;;6016521;23;20016;-83
2023/01/13 15:52:43;;;;;;;;;;;8.10;99.90;;;;;;6042915;23;20078;-78
2023/01/13 15:55:12;;;;;;;;;;;8.10;99.90;;;;;;6018645;23;20340;-82
2023/01/13 15:57:55;;;;;;;17.77;2.38;;;8.10;99.90;;;;;;5998696;23;19921;-80
2023/01/13 16:00:21;;;;;;;14.15;2.25;;;8.10;99.90;;;;;;6023089;23;20019;-81
2023/01/13 16:02:56;;;;;;;13.07;2.10;;;8.10;99.90;;;;;;6034432;23;20023;-81
2023/01/13 16:05:22;;;;;;;11.63;2.03;;;8.20;99.90;;;;;;6010421;23;20047;-80
2023/01/13 16:07:48;;;;;;;7.65;1.75;;;8.10;99.90;;;;;;6024754;23;20015;-82
2023/01/13 16:10:22;;;;;;;9.88;2.40;;;8.10;99.90;;;;;;6044699;23;20014;-78
2023/01/13 16:12:47;;;;;;;13.50;2.10;;;8.10;99.90;;;;;;6018256;23;20022;-79
2023/01/13 16:15:14;;;;;;;14.60;2.72;;;8.10;99.90;;;;;;6042535;23;20064;-85
2023/01/13 16:17:46;;;;;;;13.05;2.50;;;8.10;99.90;;;;;;6016887;23;20025;-82
2023/01/13 16:20:13;;;;;;;15.30;2.67;;;8.00;99.90;;;;;;6042929;23;20505;-83
2023/01/13 16:22:38;;;;;;;15.77;3.05;;;8.00;99.90;;;;;;6043213;23;20021;-81
2023/01/13 16:25:05;;;;;;;14.18;2.53;;;7.90;99.90;;;;;;6017819;23;20095;-83
2023/01/13 16:27:30;;;;;;;10.65;1.63;;;7.90;99.90;;;;;;6042442;23;20518;-82
2023/01/13 16:29:56;;;;;;;10.32;1.88;;;7.90;99.90;;;;;;6042639;23;20015;-85
2023/01/13 16:32:21;;;;;;;15.13;2.45;;;7.90;99.90;;;;;;6018961;23;20437;-81
2023/01/13 16:34:48;;;;;;;7.93;1.80;;;7.90;99.90;;;;;;6042934;23;20019;-82
2023/01/13 16:37:25;;;;;;;18.40;2.45;;;7.90;99.90;;;;;;6017220;23;20050;-82
2023/01/13 16:39:52;;;;;;;12.90;2.15;;;7.90;99.90;;;;;;6043065;23;20375;-81
2023/01/13 16:42:18;;;;;;;11.63;1.77;;;8.00;99.90;;;;;;6017092;23;20513;-86
2023/01/13 16:44:46;;;;;;;8.57;1.75;;;8.00;99.90;;;;;;5993331;23;20446;-85
2023/01/13 16:47:16;;;;;;;19.85;3.20;;;8.10;99.90;;;;;;5994061;23;20050;-82
2023/01/13 16:49:43;;;;;;;11.00;2.47;;;8.00;99.90;;;;;;6042548;23;20379;-85
2023/01/13 16:52:08;;;;;;;13.82;2.40;;;8.00;99.90;;;;;;6040562;23;20011;-81
2023/01/13 16:54:34;;;;;;;16.08;2.83;;;8.00;99.90;;;;;;6042963;23;20026;-83
2023/01/13 16:57:00;;;;;;;8.77;2.00;;;8.00;99.90;;;;;;6018843;23;20016;-82
2023/01/13 16:59:26;;;;;;;11.90;2.35;;;8.00;99.90;;;;;;6043630;23;20086;-82
2023/01/13 17:01:52;;;;;;;17.23;2.20;;;7.90;99.90;;;;;;6043591;23;20026;-83
2023/01/13 17:04:20;;;;;;;13.82;2.08;;;8.00;99.90;;;;;;6044605;23;20019;-83
2023/01/13 17:06:56;;;;;;;8.73;1.63;;;8.00;99.90;;;;;;6043954;23;20058;-81
2023/01/13 17:09:24;;;;;;;16.23;2.65;;;7.90;99.90;;;;;;6018568;23;20030;-83
2023/01/13 17:11:51;;;;;;;12.50;2.45;;;8.00;99.90;;;;;;5994458;23;20015;-82
2023/01/13 17:14:18;;;;;;;18.02;2.63;;;7.90;99.90;;;;;;6018992;23;20023;-84
2023/01/13 17:16:44;;;;;;;11.63;1.90;;;7.90;99.90;;;;;;6019466;23;20019;-84
2023/01/13 17:19:11;;;;;;;13.32;2.00;;;7.90;99.90;;;;;;6019324;23;20106;-85
2023/01/13 17:21:37;;;;;;;14.82;2.25;;;7.90;99.90;;;;;;6043253;23;20026;-85
2023/01/13 17:24:04;;;;;;;13.93;2.38;;;8.00;99.90;;;;;;6044158;23;20019;-86
2023/01/13 17:26:36;;;;;;;17.13;2.90;;;8.00;99.90;;;;;;6019331;23;20019;-83
2023/01/13 17:29:05;;;;;;;16.40;2.70;;;8.00;99.90;;;;;;5995019;23;20011;-84
2023/01/13 17:31:31;;;;;;;15.90;2.70;;;8.00;99.90;;;;;;6018520;23;20016;-84
2023/01/13 17:33:57;;;;;;;16.92;2.45;;;8.00;99.90;;;;;;6018709;23;20438;-84
2023/01/13 17:36:24;;;;;;;15.20;2.67;;;8.00;99.90;;;;;;6019143;23;20155;-85
2023/01/13 17:38:50;;;;;;;16.27;3.13;;;8.00;99.90;;;;;;6044376;23;20333;-84
2023/01/13 17:41:16;;;;;;;11.73;2.72;;;8.00;99.90;;;;;;6019051;23;20033;-85
2023/01/13 17:43:42;;;;;;;15.30;1.98;;;8.00;99.90;;;;;;5993946;23;20349;-84
2023/01/13 17:46:10;;;;;;;11.88;2.22;;;8.00;99.90;;;;;;6017681;23;20346;-80
2023/01/13 17:48:36;;;;;;;13.18;2.40;;;8.00;99.90;;;;;;5993866;23;20505;-83
2023/01/13 17:51:05;;;;;;;18.90;3.08;;;7.90;99.90;;;;;;6017517;23;20076;-81
2023/01/13 17:53:31;;;;;;;15.70;3.20;;;7.80;99.90;;;;;;6017755;23;20015;-83
2023/01/13 17:55:57;;;;;;;14.85;2.97;;;7.80;99.90;;;;;;6018069;23;20090;-82
2023/01/13 17:58:23;;;;;;;18.63;2.85;;;7.80;99.90;;;;;;6017203;23;20038;-81
2023/01/13 18:00:49;;;;;;;21.92;3.30;;;7.80;99.90;;;;;;6017445;23;20022;-83
2023/01/13 18:03:16;;;;;;;20.10;5.10;;;7.80;99.90;;;;;;6018447;23;20066;-84
2023/01/13 18:05:43;;;;;;;33.47;4.63;;;7.90;99.90;;;;;;6017373;23;20078;-84
2023/01/13 18:08:09;;;;;;;20.92;5.80;;;7.80;99.90;;;;;;6043146;23;20030;-82
2023/01/13 18:10:35;;;;;;;19.42;3.85;;;7.80;99.90;;;;;;6017036;23;20060;-81